sensor_id;sensor_type;location;lat;lon;timestamp;temperature;humidity
63317;DHT22;49822;41.468;13.560;2023-05-20T00:00:59;18.00;84.90
63317;DHT22;49822;41.468;13.560;2023-05-20T00:03:25;18.00;84.40
63317;DHT22;49822;41.468;13.560;2023-05-20T00:05:51;18.00;84.80
63317;DHT22;49822;41.468;13.560;2023-05-20T00:08:18;18.00;85.30
63317;DHT22;49822;41.468;13.560;2023-05-20T00:10:44;18.00;85.40
63317;DHT22;49822;41.468;13.560;2023-05-20T00:13:10;17.90;85.70
63317;DHT22;49822;41.468;13.560;2023-05-20T00:15:37;17.90;85.80
63317;DHT22;49822;41.468;13.560;2023-05-20T00:18:04;17.90;85.90
63317;DHT22;49822;41.468;13.560;2023-05-20T00:20:31;17.90;86.90
63317;DHT22;49822;41.468;13.560;2023-05-20T00:22:57;17.90;87.00
63317;DHT22;49822;41.468;13.560;2023-05-20T00:25:23;17.80;87.00
63317;DHT22;49822;41.468;13.560;2023-05-20T00:27:50;17.80;87.10
63317;DHT22;49822;41.468;13.560;2023-05-20T00:30:16;17.70;87.10
63317;DHT22;49822;41.468;13.560;2023-05-20T00:32:42;17.60;87.90
63317;DHT22;49822;41.468;13.560;2023-05-20T00:35:09;17.60;88.10
63317;DHT22;49822;41.468;13.560;2023-05-20T00:37:36;17.50;88.20
63317;DHT22;49822;41.468;13.560;2023-05-20T00:40:02;17.40;88.70
63317;DHT22;49822;41.468;13.560;2023-05-20T00:42:36;17.30;88.70
63317;DHT22;49822;41.468;13.560;2023-05-20T00:45:06;17.30;89.70
63317;DHT22;49822;41.468;13.560;2023-05-20T00:47:33;17.20;89.30
63317;DHT22;49822;41.468;13.560;2023-05-20T00:50:02;17.20;89.80
63317;DHT22;49822;41.468;13.560;2023-05-20T00:52:30;17.10;90.10
63317;DHT22;49822;41.468;13.560;2023-05-20T00:54:57;17.00;90.60
63317;DHT22;49822;41.468;13.560;2023-05-20T00:57:24;17.00;90.10
63317;DHT22;49822;41.468;13.560;2023-05-20T00:59:51;17.10;89.80
63317;DHT22;49822;41.468;13.560;2023-05-20T01:02:18;17.00;89.90
63317;DHT22;49822;41.468;13.560;2023-05-20T01:04:44;17.10;89.90
63317;DHT22;49822;41.468;13.560;2023-05-20T01:07:14;17.00;89.70
63317;DHT22;49822;41.468;13.560;2023-05-20T01:09:41;17.10;89.20
63317;DHT22;49822;41.468;13.560;2023-05-20T01:14:39;16.90;89.60
63317;DHT22;49822;41.468;13.560;2023-05-20T01:17:09;16.80;89.90
63317;DHT22;49822;41.468;13.560;2023-05-20T01:19:44;16.70;90.30
63317;DHT22;49822;41.468;13.560;2023-05-20T01:22:13;16.70;89.60
63317;DHT22;49822;41.468;13.560;2023-05-20T01:24:46;16.80;89.10
63317;DHT22;49822;41.468;13.560;2023-05-20T01:27:19;16.90;88.50
63317;DHT22;49822;41.468;13.560;2023-05-20T01:29:46;16.90;88.70
63317;DHT22;49822;41.468;13.560;2023-05-20T01:32:30;17.00;88.40
63317;DHT22;49822;41.468;13.560;2023-05-20T01:34:58;17.10;88.40
63317;DHT22;49822;41.468;13.560;2023-05-20T01:37:26;17.00;88.40
63317;DHT22;49822;41.468;13.560;2023-05-20T01:39:54;17.00;88.30
63317;DHT22;49822;41.468;13.560;2023-05-20T01:42:21;17.10;88.60
63317;DHT22;49822;41.468;13.560;2023-05-20T01:44:48;17.00;88.50
63317;DHT22;49822;41.468;13.560;2023-05-20T01:47:14;17.00;88.80
63317;DHT22;49822;41.468;13.560;2023-05-20T01:49:40;16.90;89.20
63317;DHT22;49822;41.468;13.560;2023-05-20T01:52:07;16.90;89.00
63317;DHT22;49822;41.468;13.560;2023-05-20T01:54:34;16.90;89.30
63317;DHT22;49822;41.468;13.560;2023-05-20T01:57:01;16.80;89.10
63317;DHT22;49822;41.468;13.560;2023-05-20T01:59:27;16.80;90.20
63317;DHT22;49822;41.468;13.560;2023-05-20T02:01:53;16.70;90.00
63317;DHT22;49822;41.468;13.560;2023-05-20T02:04:19;16.70;90.40
63317;DHT22;49822;41.468;13.560;2023-05-20T02:06:47;16.70;90.70
63317;DHT22;49822;41.468;13.560;2023-05-20T02:09:13;16.70;90.30
63317;DHT22;49822;41.468;13.560;2023-05-20T02:11:40;16.60;89.90
63317;DHT22;49822;41.468;13.560;2023-05-20T02:14:06;16.70;90.00
63317;DHT22;49822;41.468;13.560;2023-05-20T02:16:32;16.60;89.80
63317;DHT22;49822;41.468;13.560;2023-05-20T02:18:58;16.70;89.40
63317;DHT22;49822;41.468;13.560;2023-05-20T02:21:24;16.70;89.60
63317;DHT22;49822;41.468;13.560;2023-05-20T02:23:51;16.80;88.90
63317;DHT22;49822;41.468;13.560;2023-05-20T02:26:17;16.90;88.90
63317;DHT22;49822;41.468;13.560;2023-05-20T02:28:45;16.90;88.70
63317;DHT22;49822;41.468;13.560;2023-05-20T02:31:15;17.00;89.20
63317;DHT22;49822;41.468;13.560;2023-05-20T02:33:42;17.00;89.20
63317;DHT22;49822;41.468;13.560;2023-05-20T02:36:09;17.00;89.10
63317;DHT22;49822;41.468;13.560;2023-05-20T02:38:35;16.90;88.90
63317;DHT22;49822;41.468;13.560;2023-05-20T02:41:02;16.70;90.00
63317;DHT22;49822;41.468;13.560;2023-05-20T02:43:30;16.60;90.70
63317;DHT22;49822;41.468;13.560;2023-05-20T02:45:59;16.60;90.40
63317;DHT22;49822;41.468;13.560;2023-05-20T02:48:25;16.70;89.60
63317;DHT22;49822;41.468;13.560;2023-05-20T02:50:52;16.80;90.30
63317;DHT22;49822;41.468;13.560;2023-05-20T02:53:18;16.70;89.40
63317;DHT22;49822;41.468;13.560;2023-05-20T02:55:47;16.90;89.10
63317;DHT22;49822;41.468;13.560;2023-05-20T02:58:17;16.90;89.70
63317;DHT22;49822;41.468;13.560;2023-05-20T03:00:44;17.00;90.60
63317;DHT22;49822;41.468;13.560;2023-05-20T03:03:11;17.00;88.90
63317;DHT22;49822;41.468;13.560;2023-05-20T03:05:38;16.80;90.50
63317;DHT22;49822;41.468;13.560;2023-05-20T03:08:08;16.70;90.30
63317;DHT22;49822;41.468;13.560;2023-05-20T03:10:36;16.50;90.00
63317;DHT22;49822;41.468;13.560;2023-05-20T03:13:06;16.60;90.00
63317;DHT22;49822;41.468;13.560;2023-05-20T03:15:38;16.70;89.40
63317;DHT22;49822;41.468;13.560;2023-05-20T03:18:07;16.70;90.20
63317;DHT22;49822;41.468;13.560;2023-05-20T03:20:34;16.70;89.30
63317;DHT22;49822;41.468;13.560;2023-05-20T03:23:05;16.90;89.50
63317;DHT22;49822;41.468;13.560;2023-05-20T03:25:31;16.90;89.50
63317;DHT22;49822;41.468;13.560;2023-05-20T03:27:57;16.90;89.00
63317;DHT22;49822;41.468;13.560;2023-05-20T03:30:27;17.00;89.40
63317;DHT22;49822;41.468;13.560;2023-05-20T03:32:57;17.00;89.50
63317;DHT22;49822;41.468;13.560;2023-05-20T03:35:24;17.00;89.50
63317;DHT22;49822;41.468;13.560;2023-05-20T03:37:51;17.00;89.10
63317;DHT22;49822;41.468;13.560;2023-05-20T03:40:20;16.90;88.40
63317;DHT22;49822;41.468;13.560;2023-05-20T03:42:47;16.90;88.50
63317;DHT22;49822;41.468;13.560;2023-05-20T03:45:16;17.00;88.10
63317;DHT22;49822;41.468;13.560;2023-05-20T03:47:57;16.90;88.00
63317;DHT22;49822;41.468;13.560;2023-05-20T03:50:24;16.90;88.60
63317;DHT22;49822;41.468;13.560;2023-05-20T03:52:50;16.90;88.10
63317;DHT22;49822;41.468;13.560;2023-05-20T03:55:19;16.90;88.80
63317;DHT22;49822;41.468;13.560;2023-05-20T03:57:46;16.90;87.90
63317;DHT22;49822;41.468;13.560;2023-05-20T04:00:13;17.00;87.90
63317;DHT22;49822;41.468;13.560;2023-05-20T04:02:44;17.10;87.30
63317;DHT22;49822;41.468;13.560;2023-05-20T04:05:15;17.10;87.70
63317;DHT22;49822;41.468;13.560;2023-05-20T04:07:41;17.10;88.10
63317;DHT22;49822;41.468;13.560;2023-05-20T04:10:08;17.10;87.70
63317;DHT22;49822;41.468;13.560;2023-05-20T04:12:35;17.10;87.80
63317;DHT22;49822;41.468;13.560;2023-05-20T04:15:04;17.10;87.70
63317;DHT22;49822;41.468;13.560;2023-05-20T04:17:39;17.20;87.60
63317;DHT22;49822;41.468;13.560;2023-05-20T04:20:08;17.20;87.50
63317;DHT22;49822;41.468;13.560;2023-05-20T04:22:36;17.20;87.80
63317;DHT22;49822;41.468;13.560;2023-05-20T04:25:06;17.10;87.50
63317;DHT22;49822;41.468;13.560;2023-05-20T04:27:33;17.20;87.60
63317;DHT22;49822;41.468;13.560;2023-05-20T04:29:59;17.20;87.40
63317;DHT22;49822;41.468;13.560;2023-05-20T04:32:29;17.20;87.80
63317;DHT22;49822;41.468;13.560;2023-05-20T04:34:55;17.20;88.10
63317;DHT22;49822;41.468;13.560;2023-05-20T04:37:22;17.30;87.80
63317;DHT22;49822;41.468;13.560;2023-05-20T04:39:50;17.20;87.70
63317;DHT22;49822;41.468;13.560;2023-05-20T04:42:17;17.20;88.20
63317;DHT22;49822;41.468;13.560;2023-05-20T04:44:45;17.20;88.30
63317;DHT22;49822;41.468;13.560;2023-05-20T04:47:11;17.30;88.30
63317;DHT22;49822;41.468;13.560;2023-05-20T04:49:38;17.10;87.90
63317;DHT22;49822;41.468;13.560;2023-05-20T04:52:06;17.20;87.90
63317;DHT22;49822;41.468;13.560;2023-05-20T04:54:32;17.20;87.90
63317;DHT22;49822;41.468;13.560;2023-05-20T04:56:58;17.20;87.70
63317;DHT22;49822;41.468;13.560;2023-05-20T04:59:24;17.20;87.70
63317;DHT22;49822;41.468;13.560;2023-05-20T05:01:51;17.20;87.80
63317;DHT22;49822;41.468;13.560;2023-05-20T05:04:17;17.20;88.00
63317;DHT22;49822;41.468;13.560;2023-05-20T05:06:43;17.20;87.90
63317;DHT22;49822;41.468;13.560;2023-05-20T05:09:09;17.10;88.10
63317;DHT22;49822;41.468;13.560;2023-05-20T05:11:39;17.20;88.30
63317;DHT22;49822;41.468;13.560;2023-05-20T05:14:05;17.10;88.30
63317;DHT22;49822;41.468;13.560;2023-05-20T05:16:35;17.20;88.50
63317;DHT22;49822;41.468;13.560;2023-05-20T05:19:01;17.10;88.30
63317;DHT22;49822;41.468;13.560;2023-05-20T05:21:31;17.10;88.20
63317;DHT22;49822;41.468;13.560;2023-05-20T05:23:57;17.10;88.50
63317;DHT22;49822;41.468;13.560;2023-05-20T05:26:23;17.10;88.50
63317;DHT22;49822;41.468;13.560;2023-05-20T05:28:49;17.00;88.70
63317;DHT22;49822;41.468;13.560;2023-05-20T05:31:15;17.10;88.30
63317;DHT22;49822;41.468;13.560;2023-05-20T05:33:41;17.00;88.20
63317;DHT22;49822;41.468;13.560;2023-05-20T05:36:07;17.10;88.10
63317;DHT22;49822;41.468;13.560;2023-05-20T05:38:33;17.10;87.80
63317;DHT22;49822;41.468;13.560;2023-05-20T05:40:59;17.00;88.00
63317;DHT22;49822;41.468;13.560;2023-05-20T05:43:26;17.10;87.90
63317;DHT22;49822;41.468;13.560;2023-05-20T05:45:52;17.10;88.10
63317;DHT22;49822;41.468;13.560;2023-05-20T05:48:18;17.10;88.20
63317;DHT22;49822;41.468;13.560;2023-05-20T05:50:45;17.10;88.00
63317;DHT22;49822;41.468;13.560;2023-05-20T05:53:13;17.10;88.20
63317;DHT22;49822;41.468;13.560;2023-05-20T05:55:42;17.10;88.40
63317;DHT22;49822;41.468;13.560;2023-05-20T05:58:10;17.10;88.60
63317;DHT22;49822;41.468;13.560;2023-05-20T06:00:38;17.30;88.50
63317;DHT22;49822;41.468;13.560;2023-05-20T06:03:05;17.20;88.70
63317;DHT22;49822;41.468;13.560;2023-05-20T06:05:35;17.20;89.00
63317;DHT22;49822;41.468;13.560;2023-05-20T06:08:01;17.10;90.50
63317;DHT22;49822;41.468;13.560;2023-05-20T06:10:29;17.00;90.00
63317;DHT22;49822;41.468;13.560;2023-05-20T06:12:55;16.90;90.60
63317;DHT22;49822;41.468;13.560;2023-05-20T06:15:26;16.50;92.30
63317;DHT22;49822;41.468;13.560;2023-05-20T06:17:55;16.30;92.90
63317;DHT22;49822;41.468;13.560;2023-05-20T06:20:21;16.20;92.80
63317;DHT22;49822;41.468;13.560;2023-05-20T06:22:48;16.20;93.20
63317;DHT22;49822;41.468;13.560;2023-05-20T06:25:14;16.20;92.70
63317;DHT22;49822;41.468;13.560;2023-05-20T06:27:41;16.30;92.70
63317;DHT22;49822;41.468;13.560;2023-05-20T06:30:10;16.50;93.20
63317;DHT22;49822;41.468;13.560;2023-05-20T06:32:37;16.60;92.00
63317;DHT22;49822;41.468;13.560;2023-05-20T06:35:04;16.70;91.90
63317;DHT22;49822;41.468;13.560;2023-05-20T06:37:30;16.70;92.60
63317;DHT22;49822;41.468;13.560;2023-05-20T06:39:56;16.90;92.30
63317;DHT22;49822;41.468;13.560;2023-05-20T06:42:22;16.90;91.50
63317;DHT22;49822;41.468;13.560;2023-05-20T06:45:01;16.90;91.90
63317;DHT22;49822;41.468;13.560;2023-05-20T06:47:54;17.00;92.30
63317;DHT22;49822;41.468;13.560;2023-05-20T06:50:20;16.90;93.00
63317;DHT22;49822;41.468;13.560;2023-05-20T06:52:46;16.80;94.20
63317;DHT22;49822;41.468;13.560;2023-05-20T06:55:13;16.70;94.80
63317;DHT22;49822;41.468;13.560;2023-05-20T06:57:39;16.80;94.60
63317;DHT22;49822;41.468;13.560;2023-05-20T07:00:07;16.80;94.90
63317;DHT22;49822;41.468;13.560;2023-05-20T07:02:38;16.90;93.90
63317;DHT22;49822;41.468;13.560;2023-05-20T07:05:06;17.00;93.30
63317;DHT22;49822;41.468;13.560;2023-05-20T07:07:33;17.20;93.90
63317;DHT22;49822;41.468;13.560;2023-05-20T07:10:00;17.20;93.40
63317;DHT22;49822;41.468;13.560;2023-05-20T07:12:26;17.40;92.80
63317;DHT22;49822;41.468;13.560;2023-05-20T07:14:52;17.40;92.60
63317;DHT22;49822;41.468;13.560;2023-05-20T07:17:19;17.50;92.70
63317;DHT22;49822;41.468;13.560;2023-05-20T07:19:46;17.60;92.50
63317;DHT22;49822;41.468;13.560;2023-05-20T07:22:12;17.60;93.70
63317;DHT22;49822;41.468;13.560;2023-05-20T07:24:52;17.50;93.30
63317;DHT22;49822;41.468;13.560;2023-05-20T07:27:18;17.60;93.00
63317;DHT22;49822;41.468;13.560;2023-05-20T07:29:44;17.60;92.80
63317;DHT22;49822;41.468;13.560;2023-05-20T07:32:10;17.70;93.50
63317;DHT22;49822;41.468;13.560;2023-05-20T07:34:37;17.60;93.10
63317;DHT22;49822;41.468;13.560;2023-05-20T07:37:03;17.60;93.20
63317;DHT22;49822;41.468;13.560;2023-05-20T07:39:29;17.60;93.80
63317;DHT22;49822;41.468;13.560;2023-05-20T07:41:55;17.50;93.50
63317;DHT22;49822;41.468;13.560;2023-05-20T07:44:22;17.50;92.70
63317;DHT22;49822;41.468;13.560;2023-05-20T07:46:50;17.60;92.80
63317;DHT22;49822;41.468;13.560;2023-05-20T07:49:20;17.70;92.70
63317;DHT22;49822;41.468;13.560;2023-05-20T07:51:47;17.70;92.60
63317;DHT22;49822;41.468;13.560;2023-05-20T07:54:14;17.80;92.60
63317;DHT22;49822;41.468;13.560;2023-05-20T07:56:41;17.90;93.00
63317;DHT22;49822;41.468;13.560;2023-05-20T07:59:09;17.90;92.20
63317;DHT22;49822;41.468;13.560;2023-05-20T08:01:42;18.00;92.20
63317;DHT22;49822;41.468;13.560;2023-05-20T08:04:10;18.10;92.30
63317;DHT22;49822;41.468;13.560;2023-05-20T08:06:37;18.10;92.00
63317;DHT22;49822;41.468;13.560;2023-05-20T08:09:06;18.20;90.70
63317;DHT22;49822;41.468;13.560;2023-05-20T08:11:36;18.30;89.00
63317;DHT22;49822;41.468;13.560;2023-05-20T08:14:04;18.30;88.80
63317;DHT22;49822;41.468;13.560;2023-05-20T08:16:36;18.30;88.60
63317;DHT22;49822;41.468;13.560;2023-05-20T08:19:03;18.30;87.40
63317;DHT22;49822;41.468;13.560;2023-05-20T08:21:29;18.30;88.20
63317;DHT22;49822;41.468;13.560;2023-05-20T08:23:56;18.40;88.20
63317;DHT22;49822;41.468;13.560;2023-05-20T08:26:22;18.40;87.90
63317;DHT22;49822;41.468;13.560;2023-05-20T08:28:50;18.40;87.50
63317;DHT22;49822;41.468;13.560;2023-05-20T08:31:17;18.40;86.30
63317;DHT22;49822;41.468;13.560;2023-05-20T08:33:44;18.40;86.70
63317;DHT22;49822;41.468;13.560;2023-05-20T08:36:10;18.50;86.60
63317;DHT22;49822;41.468;13.560;2023-05-20T08:38:37;18.70;86.20
63317;DHT22;49822;41.468;13.560;2023-05-20T08:41:03;18.80;84.70
63317;DHT22;49822;41.468;13.560;2023-05-20T08:43:30;18.90;85.80
63317;DHT22;49822;41.468;13.560;2023-05-20T08:45:58;19.10;85.70
63317;DHT22;49822;41.468;13.560;2023-05-20T08:48:29;19.30;86.90
63317;DHT22;49822;41.468;13.560;2023-05-20T08:50:56;19.40;85.50
63317;DHT22;49822;41.468;13.560;2023-05-20T08:53:22;19.50;84.70
63317;DHT22;49822;41.468;13.560;2023-05-20T08:55:53;19.70;83.30
63317;DHT22;49822;41.468;13.560;2023-05-20T08:58:23;19.70;82.60
63317;DHT22;49822;41.468;13.560;2023-05-20T09:00:50;19.70;82.70
63317;DHT22;49822;41.468;13.560;2023-05-20T09:03:18;19.50;81.80
63317;DHT22;49822;41.468;13.560;2023-05-20T09:05:46;19.60;81.20
63317;DHT22;49822;41.468;13.560;2023-05-20T09:08:12;19.80;83.20
63317;DHT22;49822;41.468;13.560;2023-05-20T09:10:39;19.80;81.50
63317;DHT22;49822;41.468;13.560;2023-05-20T09:13:07;19.90;80.20
63317;DHT22;49822;41.468;13.560;2023-05-20T09:15:34;20.00;80.60
63317;DHT22;49822;41.468;13.560;2023-05-20T09:18:04;19.90;80.50
63317;DHT22;49822;41.468;13.560;2023-05-20T09:20:35;19.90;80.00
63317;DHT22;49822;41.468;13.560;2023-05-20T09:23:04;20.10;79.50
63317;DHT22;49822;41.468;13.560;2023-05-20T09:25:31;20.30;80.70
63317;DHT22;49822;41.468;13.560;2023-05-20T09:27:57;20.30;78.10
63317;DHT22;49822;41.468;13.560;2023-05-20T09:30:25;20.20;76.80
63317;DHT22;49822;41.468;13.560;2023-05-20T09:32:58;20.40;78.10
63317;DHT22;49822;41.468;13.560;2023-05-20T09:35:25;20.50;78.00
63317;DHT22;49822;41.468;13.560;2023-05-20T09:37:54;20.60;78.30
63317;DHT22;49822;41.468;13.560;2023-05-20T09:40:28;20.80;76.80
63317;DHT22;49822;41.468;13.560;2023-05-20T09:43:05;20.80;77.20
63317;DHT22;49822;41.468;13.560;2023-05-20T09:45:37;20.90;77.80
63317;DHT22;49822;41.468;13.560;2023-05-20T09:48:04;20.90;75.90
63317;DHT22;49822;41.468;13.560;2023-05-20T09:50:34;21.10;77.20
63317;DHT22;49822;41.468;13.560;2023-05-20T09:53:02;21.30;74.90
63317;DHT22;49822;41.468;13.560;2023-05-20T09:55:29;21.30;72.60
63317;DHT22;49822;41.468;13.560;2023-05-20T09:57:55;21.40;75.40
63317;DHT22;49822;41.468;13.560;2023-05-20T10:00:25;21.40;75.10
63317;DHT22;49822;41.468;13.560;2023-05-20T10:02:54;21.50;74.60
63317;DHT22;49822;41.468;13.560;2023-05-20T10:05:31;21.70;74.50
63317;DHT22;49822;41.468;13.560;2023-05-20T10:19:27;22.10;75.30
63317;DHT22;49822;41.468;13.560;2023-05-20T10:22:00;22.20;74.80
63317;DHT22;49822;41.468;13.560;2023-05-20T10:24:36;22.30;74.10
63317;DHT22;49822;41.468;13.560;2023-05-20T10:27:06;22.20;74.40
63317;DHT22;49822;41.468;13.560;2023-05-20T10:29:49;22.30;74.40
63317;DHT22;49822;41.468;13.560;2023-05-20T10:32:31;22.10;72.40
63317;DHT22;49822;41.468;13.560;2023-05-20T10:35:04;22.10;71.80
63317;DHT22;49822;41.468;13.560;2023-05-20T10:37:41;21.90;71.60
63317;DHT22;49822;41.468;13.560;2023-05-20T10:40:14;21.90;75.10
63317;DHT22;49822;41.468;13.560;2023-05-20T10:42:41;22.00;74.80
63317;DHT22;49822;41.468;13.560;2023-05-20T10:45:08;21.70;74.70
63317;DHT22;49822;41.468;13.560;2023-05-20T10:47:35;21.70;75.00
63317;DHT22;49822;41.468;13.560;2023-05-20T10:50:01;21.50;73.80
63317;DHT22;49822;41.468;13.560;2023-05-20T10:52:37;21.50;74.60
63317;DHT22;49822;41.468;13.560;2023-05-20T10:55:04;21.30;74.50
63317;DHT22;49822;41.468;13.560;2023-05-20T10:57:33;21.20;74.30
63317;DHT22;49822;41.468;13.560;2023-05-20T10:59:59;21.20;74.70
63317;DHT22;49822;41.468;13.560;2023-05-20T11:02:26;21.20;75.00
63317;DHT22;49822;41.468;13.560;2023-05-20T11:04:55;21.00;75.30
63317;DHT22;49822;41.468;13.560;2023-05-20T11:07:29;20.90;75.10
63317;DHT22;49822;41.468;13.560;2023-05-20T11:09:57;20.80;75.10
63317;DHT22;49822;41.468;13.560;2023-05-20T11:12:24;20.70;75.40
63317;DHT22;49822;41.468;13.560;2023-05-20T11:14:51;20.70;75.20
63317;DHT22;49822;41.468;13.560;2023-05-20T11:17:18;20.70;75.70
63317;DHT22;49822;41.468;13.560;2023-05-20T11:19:45;20.70;76.10
63317;DHT22;49822;41.468;13.560;2023-05-20T11:22:11;20.60;75.90
63317;DHT22;49822;41.468;13.560;2023-05-20T11:24:38;20.60;76.10
63317;DHT22;49822;41.468;13.560;2023-05-20T11:27:04;20.60;75.30
63317;DHT22;49822;41.468;13.560;2023-05-20T11:29:30;20.80;76.10
63317;DHT22;49822;41.468;13.560;2023-05-20T11:31:58;20.70;74.80
63317;DHT22;49822;41.468;13.560;2023-05-20T11:34:24;20.80;76.00
63317;DHT22;49822;41.468;13.560;2023-05-20T11:36:57;20.80;74.30
63317;DHT22;49822;41.468;13.560;2023-05-20T11:39:24;20.90;74.80
63317;DHT22;49822;41.468;13.560;2023-05-20T11:41:52;21.00;75.00
63317;DHT22;49822;41.468;13.560;2023-05-20T11:44:20;20.90;75.60
63317;DHT22;49822;41.468;13.560;2023-05-20T11:46:47;21.00;75.00
63317;DHT22;49822;41.468;13.560;2023-05-20T11:49:15;20.90;74.70
63317;DHT22;49822;41.468;13.560;2023-05-20T11:51:42;20.90;75.00
63317;DHT22;49822;41.468;13.560;2023-05-20T11:54:08;20.90;75.50
63317;DHT22;49822;41.468;13.560;2023-05-20T11:56:36;20.80;75.70
63317;DHT22;49822;41.468;13.560;2023-05-20T11:59:04;21.00;76.40
63317;DHT22;49822;41.468;13.560;2023-05-20T12:01:32;20.80;76.60
63317;DHT22;49822;41.468;13.560;2023-05-20T12:04:18;20.80;76.20
63317;DHT22;49822;41.468;13.560;2023-05-20T12:06:44;20.80;76.90
63317;DHT22;49822;41.468;13.560;2023-05-20T12:09:11;20.70;77.00
63317;DHT22;49822;41.468;13.560;2023-05-20T12:11:39;20.70;76.80
63317;DHT22;49822;41.468;13.560;2023-05-20T12:14:06;20.70;77.60
63317;DHT22;49822;41.468;13.560;2023-05-20T12:16:33;20.80;77.10
63317;DHT22;49822;41.468;13.560;2023-05-20T12:19:00;20.80;77.80
63317;DHT22;49822;41.468;13.560;2023-05-20T12:21:28;20.70;77.30
63317;DHT22;49822;41.468;13.560;2023-05-20T12:23:54;20.70;77.90
63317;DHT22;49822;41.468;13.560;2023-05-20T12:26:24;20.90;78.60
63317;DHT22;49822;41.468;13.560;2023-05-20T12:28:51;20.90;77.90
63317;DHT22;49822;41.468;13.560;2023-05-20T12:31:18;20.80;79.00
63317;DHT22;49822;41.468;13.560;2023-05-20T12:33:44;20.90;78.80
63317;DHT22;49822;41.468;13.560;2023-05-20T12:36:10;21.00;79.20
63317;DHT22;49822;41.468;13.560;2023-05-20T12:38:36;20.90;80.30
63317;DHT22;49822;41.468;13.560;2023-05-20T12:41:02;20.90;80.00
63317;DHT22;49822;41.468;13.560;2023-05-20T12:43:29;20.80;79.20
63317;DHT22;49822;41.468;13.560;2023-05-20T12:45:55;20.70;79.30
63317;DHT22;49822;41.468;13.560;2023-05-20T12:48:21;20.50;78.70
63317;DHT22;49822;41.468;13.560;2023-05-20T12:50:47;20.50;79.50
63317;DHT22;49822;41.468;13.560;2023-05-20T12:53:13;20.50;79.60
63317;DHT22;49822;41.468;13.560;2023-05-20T12:55:39;20.50;80.70
63317;DHT22;49822;41.468;13.560;2023-05-20T12:58:06;20.40;79.80
63317;DHT22;49822;41.468;13.560;2023-05-20T13:00:35;20.40;79.50
63317;DHT22;49822;41.468;13.560;2023-05-20T13:03:03;20.30;81.10
63317;DHT22;49822;41.468;13.560;2023-05-20T13:05:29;20.30;81.00
63317;DHT22;49822;41.468;13.560;2023-05-20T13:07:55;20.30;81.20
63317;DHT22;49822;41.468;13.560;2023-05-20T13:10:21;20.10;81.80
63317;DHT22;49822;41.468;13.560;2023-05-20T13:12:48;20.00;82.50
63317;DHT22;49822;41.468;13.560;2023-05-20T13:15:14;20.00;81.60
63317;DHT22;49822;41.468;13.560;2023-05-20T13:17:41;20.00;83.20
63317;DHT22;49822;41.468;13.560;2023-05-20T13:20:08;19.90;83.00
63317;DHT22;49822;41.468;13.560;2023-05-20T13:22:34;19.90;83.10
63317;DHT22;49822;41.468;13.560;2023-05-20T13:25:00;19.80;83.60
63317;DHT22;49822;41.468;13.560;2023-05-20T13:27:26;19.70;83.90
63317;DHT22;49822;41.468;13.560;2023-05-20T13:29:52;19.80;83.90
63317;DHT22;49822;41.468;13.560;2023-05-20T13:32:18;19.60;84.30
63317;DHT22;49822;41.468;13.560;2023-05-20T13:34:44;19.50;84.50
63317;DHT22;49822;41.468;13.560;2023-05-20T13:37:11;19.50;85.00
63317;DHT22;49822;41.468;13.560;2023-05-20T13:39:37;19.30;85.00
63317;DHT22;49822;41.468;13.560;2023-05-20T13:42:03;19.20;85.20
63317;DHT22;49822;41.468;13.560;2023-05-20T13:44:29;19.30;85.20
63317;DHT22;49822;41.468;13.560;2023-05-20T13:46:55;19.20;84.90
63317;DHT22;49822;41.468;13.560;2023-05-20T13:49:21;19.20;85.60
63317;DHT22;49822;41.468;13.560;2023-05-20T13:51:48;19.10;85.90
63317;DHT22;49822;41.468;13.560;2023-05-20T13:54:14;19.00;84.70
63317;DHT22;49822;41.468;13.560;2023-05-20T13:56:40;18.90;85.30
63317;DHT22;49822;41.468;13.560;2023-05-20T13:59:07;18.90;86.50
63317;DHT22;49822;41.468;13.560;2023-05-20T14:01:33;18.60;86.80
63317;DHT22;49822;41.468;13.560;2023-05-20T14:03:59;18.50;87.10
63317;DHT22;49822;41.468;13.560;2023-05-20T14:06:25;18.60;86.70
63317;DHT22;49822;41.468;13.560;2023-05-20T14:08:56;18.60;87.90
63317;DHT22;49822;41.468;13.560;2023-05-20T14:11:22;18.50;87.90
63317;DHT22;49822;41.468;13.560;2023-05-20T14:13:48;18.60;87.20
63317;DHT22;49822;41.468;13.560;2023-05-20T14:16:15;18.60;87.80
63317;DHT22;49822;41.468;13.560;2023-05-20T14:18:41;18.60;88.10
63317;DHT22;49822;41.468;13.560;2023-05-20T14:21:07;18.50;87.10
63317;DHT22;49822;41.468;13.560;2023-05-20T14:23:33;18.40;87.50
63317;DHT22;49822;41.468;13.560;2023-05-20T14:25:59;18.50;87.60
63317;DHT22;49822;41.468;13.560;2023-05-20T14:28:25;18.40;87.90
63317;DHT22;49822;41.468;13.560;2023-05-20T14:30:51;18.20;88.40
63317;DHT22;49822;41.468;13.560;2023-05-20T14:33:18;18.30;88.90
63317;DHT22;49822;41.468;13.560;2023-05-20T14:35:44;18.30;89.10
63317;DHT22;49822;41.468;13.560;2023-05-20T14:38:11;18.20;88.40
63317;DHT22;49822;41.468;13.560;2023-05-20T14:40:37;18.30;87.90
63317;DHT22;49822;41.468;13.560;2023-05-20T14:43:03;18.30;87.50
63317;DHT22;49822;41.468;13.560;2023-05-20T14:45:31;18.40;88.10
63317;DHT22;49822;41.468;13.560;2023-05-20T14:47:58;18.20;88.30
63317;DHT22;49822;41.468;13.560;2023-05-20T14:50:24;18.20;87.50
63317;DHT22;49822;41.468;13.560;2023-05-20T14:52:50;18.20;87.00
63317;DHT22;49822;41.468;13.560;2023-05-20T14:55:15;18.10;88.60
63317;DHT22;49822;41.468;13.560;2023-05-20T14:57:42;18.10;88.30
63317;DHT22;49822;41.468;13.560;2023-05-20T15:00:09;18.10;88.00
63317;DHT22;49822;41.468;13.560;2023-05-20T15:02:36;18.10;88.40
63317;DHT22;49822;41.468;13.560;2023-05-20T15:05:02;18.10;88.50
63317;DHT22;49822;41.468;13.560;2023-05-20T15:07:28;18.00;88.40
63317;DHT22;49822;41.468;13.560;2023-05-20T15:09:54;18.00;88.70
63317;DHT22;49822;41.468;13.560;2023-05-20T15:12:20;17.90;88.80
63317;DHT22;49822;41.468;13.560;2023-05-20T15:14:46;17.90;88.70
63317;DHT22;49822;41.468;13.560;2023-05-20T15:17:12;17.90;88.40
63317;DHT22;49822;41.468;13.560;2023-05-20T15:19:38;17.90;88.60
63317;DHT22;49822;41.468;13.560;2023-05-20T15:22:06;17.90;87.90
63317;DHT22;49822;41.468;13.560;2023-05-20T15:24:32;17.90;88.80
63317;DHT22;49822;41.468;13.560;2023-05-20T15:26:58;17.90;88.70
63317;DHT22;49822;41.468;13.560;2023-05-20T15:29:24;17.90;88.60
63317;DHT22;49822;41.468;13.560;2023-05-20T15:31:50;17.80;88.50